KBID

Block Island State Airport

Block Island, Rhode Island, USA
METAR KBID 280056Z AUTO 05013G21KT 4SM -RA BR OVC002 11/11 A3009 RMK AO2 RAE02B30 SLP194 P0000 T01110111
Observed Flight Rules
May-28 @ 00:56 UTC (32 minutes ago) Instrument Flight Rules
Wind Visibility Clouds Conditions
50° at 13 knots
 Gusting to 21 knots
4 miles
  • Overcast at 200' AGL
  • Light Rain
  • Mist
Temperatures Readings Precipitation
Current 11°C / 52°F
Dewpoint 11°C / 52°F
Humidity 100%
Altimeter 30.09" Hg
Pressure 1019.4 hPa
Elevation 33
Current Rain 0.005
METAR KBID 280056Z AUTO 05013G21KT 4SM -RA BR OVC002 11/11 A3009 RMK AO2 RAE02B30 SLP194 P0000 T01110111
Observed Flight Rules
May-28 @ 00:56 UTC
(32 minutes ago)
LIFR
Wind Visibility
50° at 13 knots
 Gusting to 21 knots
4 miles
Clouds
  • Overcast at 200' AGL
Conditions
  • Light Rain
  • Mist
Temperature Dewpoint
11°C / 52°F 11°C / 52°F
Humidity Altimeter Pressure
100% 30.09" Hg 1019.4 hPa
Current Rain
0.005